sensor_id;sensor_type;location;lat;lon;timestamp;temperature;humidity
23053;DHT22;11694;-36.632;-64.318;2022-10-31T00:01:23;10.30;1.00
23053;DHT22;11694;-36.632;-64.318;2022-10-31T00:03:51;10.30;1.00
23053;DHT22;11694;-36.632;-64.318;2022-10-31T00:06:19;10.20;1.00
23053;DHT22;11694;-36.632;-64.318;2022-10-31T00:08:52;10.10;1.00
23053;DHT22;11694;-36.632;-64.318;2022-10-31T00:11:19;10.00;1.00
23053;DHT22;11694;-36.632;-64.318;2022-10-31T00:16:29;9.70;1.00
23053;DHT22;11694;-36.632;-64.318;2022-10-31T00:18:58;9.60;1.00
23053;DHT22;11694;-36.632;-64.318;2022-10-31T00:21:27;9.50;1.00
23053;DHT22;11694;-36.632;-64.318;2022-10-31T00:23:54;9.30;1.00
23053;DHT22;11694;-36.632;-64.318;2022-10-31T00:26:21;9.20;1.00
23053;DHT22;11694;-36.632;-64.318;2022-10-31T00:28:48;9.10;6.10
23053;DHT22;11694;-36.632;-64.318;2022-10-31T00:31:17;9.00;1.20
23053;DHT22;11694;-36.632;-64.318;2022-10-31T00:33:44;9.00;1.00
23053;DHT22;11694;-36.632;-64.318;2022-10-31T00:36:14;8.90;1.00
23053;DHT22;11694;-36.632;-64.318;2022-10-31T00:38:42;8.90;1.00
23053;DHT22;11694;-36.632;-64.318;2022-10-31T00:41:14;8.70;4.20
23053;DHT22;11694;-36.632;-64.318;2022-10-31T00:43:42;8.70;1.00
23053;DHT22;11694;-36.632;-64.318;2022-10-31T00:46:10;8.70;1.00
23053;DHT22;11694;-36.632;-64.318;2022-10-31T00:48:37;8.70;1.00
23053;DHT22;11694;-36.632;-64.318;2022-10-31T00:51:05;8.60;1.00
23053;DHT22;11694;-36.632;-64.318;2022-10-31T00:53:32;8.70;1.00
23053;DHT22;11694;-36.632;-64.318;2022-10-31T00:56:00;8.70;1.00
23053;DHT22;11694;-36.632;-64.318;2022-10-31T00:58:27;8.80;1.00
23053;DHT22;11694;-36.632;-64.318;2022-10-31T01:00:54;8.80;1.00
23053;DHT22;11694;-36.632;-64.318;2022-10-31T01:03:26;8.80;99.90
23053;DHT22;11694;-36.632;-64.318;2022-10-31T01:06:13;8.70;99.90
23053;DHT22;11694;-36.632;-64.318;2022-10-31T01:08:40;8.70;99.90
23053;DHT22;11694;-36.632;-64.318;2022-10-31T01:11:13;8.60;99.90
23053;DHT22;11694;-36.632;-64.318;2022-10-31T01:13:40;8.50;99.90
23053;DHT22;11694;-36.632;-64.318;2022-10-31T01:16:10;8.50;99.90
23053;DHT22;11694;-36.632;-64.318;2022-10-31T01:18:38;8.60;99.90
23053;DHT22;11694;-36.632;-64.318;2022-10-31T01:21:08;8.50;99.90
23053;DHT22;11694;-36.632;-64.318;2022-10-31T01:23:39;8.50;99.90
23053;DHT22;11694;-36.632;-64.318;2022-10-31T01:26:07;8.50;99.90
23053;DHT22;11694;-36.632;-64.318;2022-10-31T01:28:37;8.50;99.90
23053;DHT22;11694;-36.632;-64.318;2022-10-31T01:31:07;8.50;99.90
23053;DHT22;11694;-36.632;-64.318;2022-10-31T01:33:35;8.30;99.90
23053;DHT22;11694;-36.632;-64.318;2022-10-31T01:39:04;8.10;99.90
23053;DHT22;11694;-36.632;-64.318;2022-10-31T01:41:36;8.00;1.00
23053;DHT22;11694;-36.632;-64.318;2022-10-31T01:47:04;7.90;1.00
23053;DHT22;11694;-36.632;-64.318;2022-10-31T01:49:46;7.80;1.00
23053;DHT22;11694;-36.632;-64.318;2022-10-31T01:52:32;7.70;1.00
23053;DHT22;11694;-36.632;-64.318;2022-10-31T01:55:08;7.70;1.00
23053;DHT22;11694;-36.632;-64.318;2022-10-31T01:57:37;7.70;1.00
23053;DHT22;11694;-36.632;-64.318;2022-10-31T02:00:09;7.70;1.00
23053;DHT22;11694;-36.632;-64.318;2022-10-31T02:02:37;7.70;1.00
23053;DHT22;11694;-36.632;-64.318;2022-10-31T02:05:10;7.60;1.00
23053;DHT22;11694;-36.632;-64.318;2022-10-31T02:07:52;7.60;1.00
23053;DHT22;11694;-36.632;-64.318;2022-10-31T02:10:22;7.60;1.00
23053;DHT22;11694;-36.632;-64.318;2022-10-31T02:12:55;7.60;1.00
23053;DHT22;11694;-36.632;-64.318;2022-10-31T02:15:23;7.70;1.00
23053;DHT22;11694;-36.632;-64.318;2022-10-31T02:17:51;7.60;1.00
23053;DHT22;11694;-36.632;-64.318;2022-10-31T02:20:26;7.70;1.00
23053;DHT22;11694;-36.632;-64.318;2022-10-31T02:23:23;7.70;1.00
23053;DHT22;11694;-36.632;-64.318;2022-10-31T02:26:17;7.60;1.00
23053;DHT22;11694;-36.632;-64.318;2022-10-31T02:31:51;7.30;1.00
23053;DHT22;11694;-36.632;-64.318;2022-10-31T02:36:59;7.30;1.00
23053;DHT22;11694;-36.632;-64.318;2022-10-31T02:47:29;7.10;1.00
23053;DHT22;11694;-36.632;-64.318;2022-10-31T02:50:20;7.10;1.00
23053;DHT22;11694;-36.632;-64.318;2022-10-31T02:52:52;7.20;1.00
23053;DHT22;11694;-36.632;-64.318;2022-10-31T02:58:07;7.20;1.00
23053;DHT22;11694;-36.632;-64.318;2022-10-31T03:00:58;7.20;1.00
23053;DHT22;11694;-36.632;-64.318;2022-10-31T03:06:33;7.10;1.00
23053;DHT22;11694;-36.632;-64.318;2022-10-31T03:12:03;7.00;1.00
23053;DHT22;11694;-36.632;-64.318;2022-10-31T03:18:00;6.80;1.00
23053;DHT22;11694;-36.632;-64.318;2022-10-31T03:21:18;6.80;1.00
23053;DHT22;11694;-36.632;-64.318;2022-10-31T03:23:26;6.80;1.00
23053;DHT22;11694;-36.632;-64.318;2022-10-31T03:25:54;6.70;1.00
23053;DHT22;11694;-36.632;-64.318;2022-10-31T03:28:32;6.60;1.00
23053;DHT22;11694;-36.632;-64.318;2022-10-31T03:31:02;6.60;1.00
23053;DHT22;11694;-36.632;-64.318;2022-10-31T03:33:33;6.60;1.00
23053;DHT22;11694;-36.632;-64.318;2022-10-31T03:36:03;6.50;1.00
23053;DHT22;11694;-36.632;-64.318;2022-10-31T03:38:34;6.50;1.00
23053;DHT22;11694;-36.632;-64.318;2022-10-31T03:41:04;6.50;1.00
23053;DHT22;11694;-36.632;-64.318;2022-10-31T03:43:38;6.40;1.00
23053;DHT22;11694;-36.632;-64.318;2022-10-31T03:46:07;6.10;1.00
23053;DHT22;11694;-36.632;-64.318;2022-10-31T03:48:34;6.10;1.00
23053;DHT22;11694;-36.632;-64.318;2022-10-31T03:51:20;5.90;1.00
23053;DHT22;11694;-36.632;-64.318;2022-10-31T03:56:41;5.90;1.00
23053;DHT22;11694;-36.632;-64.318;2022-10-31T03:59:16;5.60;9.70
23053;DHT22;11694;-36.632;-64.318;2022-10-31T04:01:47;5.30;27.30
23053;DHT22;11694;-36.632;-64.318;2022-10-31T04:04:16;5.00;43.40
23053;DHT22;11694;-36.632;-64.318;2022-10-31T04:06:44;4.80;56.80
23053;DHT22;11694;-36.632;-64.318;2022-10-31T04:09:14;4.70;61.80
23053;DHT22;11694;-36.632;-64.318;2022-10-31T04:11:46;4.80;62.20
23053;DHT22;11694;-36.632;-64.318;2022-10-31T04:14:16;4.80;60.50
23053;DHT22;11694;-36.632;-64.318;2022-10-31T04:16:44;4.80;60.10
23053;DHT22;11694;-36.632;-64.318;2022-10-31T04:19:12;4.80;61.80
23053;DHT22;11694;-36.632;-64.318;2022-10-31T04:21:39;4.80;67.20
23053;DHT22;11694;-36.632;-64.318;2022-10-31T04:24:10;4.70;77.40
23053;DHT22;11694;-36.632;-64.318;2022-10-31T04:26:37;4.50;90.40
23053;DHT22;11694;-36.632;-64.318;2022-10-31T04:29:04;4.40;95.10
23053;DHT22;11694;-36.632;-64.318;2022-10-31T04:31:31;4.30;97.70
23053;DHT22;11694;-36.632;-64.318;2022-10-31T04:33:58;4.20;99.90
23053;DHT22;11694;-36.632;-64.318;2022-10-31T04:36:25;4.00;99.90
23053;DHT22;11694;-36.632;-64.318;2022-10-31T04:38:53;3.90;99.90
23053;DHT22;11694;-36.632;-64.318;2022-10-31T04:41:20;3.80;99.90
23053;DHT22;11694;-36.632;-64.318;2022-10-31T04:43:47;3.80;99.90
23053;DHT22;11694;-36.632;-64.318;2022-10-31T04:46:14;3.60;99.90
23053;DHT22;11694;-36.632;-64.318;2022-10-31T04:48:41;3.70;99.90
23053;DHT22;11694;-36.632;-64.318;2022-10-31T04:51:08;3.60;99.90
23053;DHT22;11694;-36.632;-64.318;2022-10-31T04:53:35;3.60;99.90
23053;DHT22;11694;-36.632;-64.318;2022-10-31T04:56:03;3.60;99.90
23053;DHT22;11694;-36.632;-64.318;2022-10-31T04:58:30;3.50;99.90
23053;DHT22;11694;-36.632;-64.318;2022-10-31T05:00:57;3.60;99.90
23053;DHT22;11694;-36.632;-64.318;2022-10-31T05:03:24;3.40;99.90
23053;DHT22;11694;-36.632;-64.318;2022-10-31T05:05:51;3.30;99.90
23053;DHT22;11694;-36.632;-64.318;2022-10-31T05:08:18;3.30;99.90
23053;DHT22;11694;-36.632;-64.318;2022-10-31T05:10:45;3.30;99.90
23053;DHT22;11694;-36.632;-64.318;2022-10-31T05:13:13;3.30;99.90
23053;DHT22;11694;-36.632;-64.318;2022-10-31T05:15:41;3.20;99.90
23053;DHT22;11694;-36.632;-64.318;2022-10-31T05:18:08;3.30;99.90
23053;DHT22;11694;-36.632;-64.318;2022-10-31T05:20:36;3.30;99.90
23053;DHT22;11694;-36.632;-64.318;2022-10-31T05:23:03;3.30;99.90
23053;DHT22;11694;-36.632;-64.318;2022-10-31T05:25:30;3.30;99.90
23053;DHT22;11694;-36.632;-64.318;2022-10-31T05:27:57;3.40;99.90
23053;DHT22;11694;-36.632;-64.318;2022-10-31T05:30:28;3.50;99.90
23053;DHT22;11694;-36.632;-64.318;2022-10-31T05:32:55;3.50;99.90
23053;DHT22;11694;-36.632;-64.318;2022-10-31T05:35:29;3.60;99.90
23053;DHT22;11694;-36.632;-64.318;2022-10-31T05:37:57;3.70;97.70
23053;DHT22;11694;-36.632;-64.318;2022-10-31T05:40:24;3.80;95.10
23053;DHT22;11694;-36.632;-64.318;2022-10-31T05:42:53;3.90;92.30
23053;DHT22;11694;-36.632;-64.318;2022-10-31T05:45:22;3.90;90.70
23053;DHT22;11694;-36.632;-64.318;2022-10-31T05:48:00;3.90;90.70
23053;DHT22;11694;-36.632;-64.318;2022-10-31T05:50:29;3.80;91.40
23053;DHT22;11694;-36.632;-64.318;2022-10-31T05:52:59;3.80;91.60
23053;DHT22;11694;-36.632;-64.318;2022-10-31T05:55:26;3.80;91.30
23053;DHT22;11694;-36.632;-64.318;2022-10-31T05:57:54;3.80;90.40
23053;DHT22;11694;-36.632;-64.318;2022-10-31T06:00:22;3.70;90.50
23053;DHT22;11694;-36.632;-64.318;2022-10-31T06:02:49;3.70;91.30
23053;DHT22;11694;-36.632;-64.318;2022-10-31T06:05:23;3.60;91.40
23053;DHT22;11694;-36.632;-64.318;2022-10-31T06:07:50;3.60;91.70
23053;DHT22;11694;-36.632;-64.318;2022-10-31T06:10:17;3.50;92.90
23053;DHT22;11694;-36.632;-64.318;2022-10-31T06:12:47;3.40;94.90
23053;DHT22;11694;-36.632;-64.318;2022-10-31T06:15:14;3.20;95.80
23053;DHT22;11694;-36.632;-64.318;2022-10-31T06:17:41;3.00;97.60
23053;DHT22;11694;-36.632;-64.318;2022-10-31T06:20:09;3.00;99.10
23053;DHT22;11694;-36.632;-64.318;2022-10-31T06:22:36;2.90;99.90
23053;DHT22;11694;-36.632;-64.318;2022-10-31T06:25:03;2.80;99.90
23053;DHT22;11694;-36.632;-64.318;2022-10-31T06:27:31;2.70;99.90
23053;DHT22;11694;-36.632;-64.318;2022-10-31T06:29:58;2.70;99.90
23053;DHT22;11694;-36.632;-64.318;2022-10-31T06:32:25;2.70;99.90
23053;DHT22;11694;-36.632;-64.318;2022-10-31T06:34:52;2.70;99.90
23053;DHT22;11694;-36.632;-64.318;2022-10-31T06:37:19;2.80;99.90
23053;DHT22;11694;-36.632;-64.318;2022-10-31T06:39:46;2.70;99.90
23053;DHT22;11694;-36.632;-64.318;2022-10-31T06:42:15;2.80;99.90
23053;DHT22;11694;-36.632;-64.318;2022-10-31T06:44:42;2.70;99.90
23053;DHT22;11694;-36.632;-64.318;2022-10-31T06:47:09;2.40;99.90
23053;DHT22;11694;-36.632;-64.318;2022-10-31T06:49:36;2.20;99.90
23053;DHT22;11694;-36.632;-64.318;2022-10-31T06:52:03;2.20;99.90
23053;DHT22;11694;-36.632;-64.318;2022-10-31T06:54:31;2.00;99.90
23053;DHT22;11694;-36.632;-64.318;2022-10-31T06:56:58;2.00;99.90
23053;DHT22;11694;-36.632;-64.318;2022-10-31T06:59:25;1.90;99.90
23053;DHT22;11694;-36.632;-64.318;2022-10-31T07:01:52;1.80;99.90
23053;DHT22;11694;-36.632;-64.318;2022-10-31T07:04:20;1.70;99.90
23053;DHT22;11694;-36.632;-64.318;2022-10-31T07:06:51;1.60;99.90
23053;DHT22;11694;-36.632;-64.318;2022-10-31T07:09:19;1.70;99.90
23053;DHT22;11694;-36.632;-64.318;2022-10-31T07:11:46;1.80;99.90
23053;DHT22;11694;-36.632;-64.318;2022-10-31T07:14:13;2.00;99.90
23053;DHT22;11694;-36.632;-64.318;2022-10-31T07:16:40;2.10;99.90
23053;DHT22;11694;-36.632;-64.318;2022-10-31T07:19:07;2.10;99.90
23053;DHT22;11694;-36.632;-64.318;2022-10-31T07:21:34;2.10;99.90
23053;DHT22;11694;-36.632;-64.318;2022-10-31T07:24:01;2.00;99.90
23053;DHT22;11694;-36.632;-64.318;2022-10-31T07:26:29;1.90;99.90
23053;DHT22;11694;-36.632;-64.318;2022-10-31T07:28:56;1.80;99.90
23053;DHT22;11694;-36.632;-64.318;2022-10-31T07:31:23;1.80;99.90
23053;DHT22;11694;-36.632;-64.318;2022-10-31T07:33:52;1.80;99.90
23053;DHT22;11694;-36.632;-64.318;2022-10-31T07:36:20;1.70;99.90
23053;DHT22;11694;-36.632;-64.318;2022-10-31T07:38:47;1.70;99.90
23053;DHT22;11694;-36.632;-64.318;2022-10-31T07:41:14;1.60;99.90
23053;DHT22;11694;-36.632;-64.318;2022-10-31T07:43:41;1.50;99.90
23053;DHT22;11694;-36.632;-64.318;2022-10-31T07:46:08;1.60;99.90
23053;DHT22;11694;-36.632;-64.318;2022-10-31T07:48:35;1.60;99.90
23053;DHT22;11694;-36.632;-64.318;2022-10-31T07:51:02;1.70;99.90
23053;DHT22;11694;-36.632;-64.318;2022-10-31T07:53:29;1.60;99.90
23053;DHT22;11694;-36.632;-64.318;2022-10-31T07:55:56;1.50;99.90
23053;DHT22;11694;-36.632;-64.318;2022-10-31T07:58:23;1.40;99.90
23053;DHT22;11694;-36.632;-64.318;2022-10-31T08:00:51;1.40;99.90
23053;DHT22;11694;-36.632;-64.318;2022-10-31T08:03:19;1.30;99.90
23053;DHT22;11694;-36.632;-64.318;2022-10-31T08:05:47;1.40;99.90
23053;DHT22;11694;-36.632;-64.318;2022-10-31T08:08:15;1.40;99.90
23053;DHT22;11694;-36.632;-64.318;2022-10-31T08:10:42;1.30;99.90
23053;DHT22;11694;-36.632;-64.318;2022-10-31T08:13:11;1.20;99.90
23053;DHT22;11694;-36.632;-64.318;2022-10-31T08:15:39;1.20;99.90
23053;DHT22;11694;-36.632;-64.318;2022-10-31T08:18:17;1.20;99.90
23053;DHT22;11694;-36.632;-64.318;2022-10-31T08:20:44;1.20;99.90
23053;DHT22;11694;-36.632;-64.318;2022-10-31T08:23:12;1.10;99.90
23053;DHT22;11694;-36.632;-64.318;2022-10-31T08:25:40;1.00;99.90
23053;DHT22;11694;-36.632;-64.318;2022-10-31T08:28:10;1.00;99.90
23053;DHT22;11694;-36.632;-64.318;2022-10-31T08:30:39;0.80;99.90
23053;DHT22;11694;-36.632;-64.318;2022-10-31T08:33:10;0.70;99.90
23053;DHT22;11694;-36.632;-64.318;2022-10-31T08:35:38;0.50;99.90
23053;DHT22;11694;-36.632;-64.318;2022-10-31T08:38:05;0.50;99.90
23053;DHT22;11694;-36.632;-64.318;2022-10-31T08:40:35;0.40;99.90
23053;DHT22;11694;-36.632;-64.318;2022-10-31T08:45:33;0.50;99.90
23053;DHT22;11694;-36.632;-64.318;2022-10-31T08:48:02;0.50;99.90
23053;DHT22;11694;-36.632;-64.318;2022-10-31T08:50:31;0.50;99.90
23053;DHT22;11694;-36.632;-64.318;2022-10-31T08:53:07;0.40;99.90
23053;DHT22;11694;-36.632;-64.318;2022-10-31T08:55:35;0.40;99.90
23053;DHT22;11694;-36.632;-64.318;2022-10-31T08:58:04;0.30;99.90
23053;DHT22;11694;-36.632;-64.318;2022-10-31T09:00:33;0.20;99.90
23053;DHT22;11694;-36.632;-64.318;2022-10-31T09:03:03;0.10;99.90
23053;DHT22;11694;-36.632;-64.318;2022-10-31T09:05:31;0.00;99.90
23053;DHT22;11694;-36.632;-64.318;2022-10-31T09:08:00;0.00;99.90
23053;DHT22;11694;-36.632;-64.318;2022-10-31T09:10:28;0.00;99.90
23053;DHT22;11694;-36.632;-64.318;2022-10-31T09:12:57;0.00;99.90
23053;DHT22;11694;-36.632;-64.318;2022-10-31T09:15:25;0.00;99.90
23053;DHT22;11694;-36.632;-64.318;2022-10-31T09:17:52;0.10;99.90
23053;DHT22;11694;-36.632;-64.318;2022-10-31T09:20:20;0.00;99.90
23053;DHT22;11694;-36.632;-64.318;2022-10-31T09:22:47;0.00;99.90
23053;DHT22;11694;-36.632;-64.318;2022-10-31T09:25:14;0.10;99.90
23053;DHT22;11694;-36.632;-64.318;2022-10-31T09:27:41;0.20;99.90
23053;DHT22;11694;-36.632;-64.318;2022-10-31T09:30:08;0.20;99.90
23053;DHT22;11694;-36.632;-64.318;2022-10-31T09:32:36;0.30;99.90
23053;DHT22;11694;-36.632;-64.318;2022-10-31T09:35:03;0.40;99.90
23053;DHT22;11694;-36.632;-64.318;2022-10-31T09:37:30;0.40;99.90
23053;DHT22;11694;-36.632;-64.318;2022-10-31T09:39:57;0.50;99.90
23053;DHT22;11694;-36.632;-64.318;2022-10-31T09:45:28;0.70;99.90
23053;DHT22;11694;-36.632;-64.318;2022-10-31T09:48:14;0.90;99.90
23053;DHT22;11694;-36.632;-64.318;2022-10-31T09:56:17;1.20;99.90
23053;DHT22;11694;-36.632;-64.318;2022-10-31T09:58:51;1.30;99.90
23053;DHT22;11694;-36.632;-64.318;2022-10-31T10:06:42;1.90;99.90
23053;DHT22;11694;-36.632;-64.318;2022-10-31T10:09:11;2.10;99.90
23053;DHT22;11694;-36.632;-64.318;2022-10-31T10:12:10;2.50;99.90
23053;DHT22;11694;-36.632;-64.318;2022-10-31T10:17:22;3.10;99.90
23053;DHT22;11694;-36.632;-64.318;2022-10-31T10:20:23;3.30;99.90
23053;DHT22;11694;-36.632;-64.318;2022-10-31T10:28:58;3.50;99.90
23053;DHT22;11694;-36.632;-64.318;2022-10-31T10:31:32;3.70;99.90
23053;DHT22;11694;-36.632;-64.318;2022-10-31T10:34:21;3.90;99.90
23053;DHT22;11694;-36.632;-64.318;2022-10-31T10:39:22;4.70;95.00
23053;DHT22;11694;-36.632;-64.318;2022-10-31T10:41:51;5.00;88.60
23053;DHT22;11694;-36.632;-64.318;2022-10-31T10:44:43;5.30;76.50
23053;DHT22;11694;-36.632;-64.318;2022-10-31T10:47:38;5.60;65.00
23053;DHT22;11694;-36.632;-64.318;2022-10-31T10:55:49;7.00;32.70
23053;DHT22;11694;-36.632;-64.318;2022-10-31T10:58:17;7.80;20.30
23053;DHT22;11694;-36.632;-64.318;2022-10-31T11:00:46;8.60;1.00
23053;DHT22;11694;-36.632;-64.318;2022-10-31T11:03:15;8.50;1.00
23053;DHT22;11694;-36.632;-64.318;2022-10-31T11:05:44;8.50;1.00
23053;DHT22;11694;-36.632;-64.318;2022-10-31T11:08:27;8.60;1.00
23053;DHT22;11694;-36.632;-64.318;2022-10-31T11:11:08;8.70;1.00
23053;DHT22;11694;-36.632;-64.318;2022-10-31T11:13:42;8.80;1.00
23053;DHT22;11694;-36.632;-64.318;2022-10-31T11:16:30;9.10;1.00
23053;DHT22;11694;-36.632;-64.318;2022-10-31T11:19:26;9.30;1.00
23053;DHT22;11694;-36.632;-64.318;2022-10-31T11:21:54;9.40;1.00
23053;DHT22;11694;-36.632;-64.318;2022-10-31T11:24:38;9.60;1.00
23053;DHT22;11694;-36.632;-64.318;2022-10-31T11:27:16;9.90;99.90
23053;DHT22;11694;-36.632;-64.318;2022-10-31T11:29:46;10.30;99.90
23053;DHT22;11694;-36.632;-64.318;2022-10-31T11:32:26;10.50;99.90
23053;DHT22;11694;-36.632;-64.318;2022-10-31T11:34:59;11.40;99.90
23053;DHT22;11694;-36.632;-64.318;2022-10-31T11:37:29;12.80;99.90
23053;DHT22;11694;-36.632;-64.318;2022-10-31T11:40:02;13.80;99.90
23053;DHT22;11694;-36.632;-64.318;2022-10-31T11:42:40;14.00;99.90
23053;DHT22;11694;-36.632;-64.318;2022-10-31T11:47:49;14.90;99.90
23053;DHT22;11694;-36.632;-64.318;2022-10-31T11:50:23;15.10;99.90
23053;DHT22;11694;-36.632;-64.318;2022-10-31T11:52:52;15.50;99.90
23053;DHT22;11694;-36.632;-64.318;2022-10-31T11:55:38;15.80;99.90
23053;DHT22;11694;-36.632;-64.318;2022-10-31T11:58:25;15.60;99.90
23053;DHT22;11694;-36.632;-64.318;2022-10-31T12:00:55;15.80;99.90
23053;DHT22;11694;-36.632;-64.318;2022-10-31T12:06:23;16.80;99.90
23053;DHT22;11694;-36.632;-64.318;2022-10-31T12:08:52;16.70;99.90
23053;DHT22;11694;-36.632;-64.318;2022-10-31T12:11:56;16.60;99.90
23053;DHT22;11694;-36.632;-64.318;2022-10-31T12:19:52;17.00;99.90
23053;DHT22;11694;-36.632;-64.318;2022-10-31T12:22:48;16.90;99.90
23053;DHT22;11694;-36.632;-64.318;2022-10-31T12:42:31;18.00;94.80
23053;DHT22;11694;-36.632;-64.318;2022-10-31T12:45:08;18.30;91.60
23053;DHT22;11694;-36.632;-64.318;2022-10-31T12:48:13;18.30;90.90
23053;DHT22;11694;-36.632;-64.318;2022-10-31T12:54:13;18.90;91.00
23053;DHT22;11694;-36.632;-64.318;2022-10-31T12:56:52;18.90;90.20
23053;DHT22;11694;-36.632;-64.318;2022-10-31T13:13:24;19.40;76.60
23053;DHT22;11694;-36.632;-64.318;2022-10-31T13:16:29;19.30;74.90
23053;DHT22;11694;-36.632;-64.318;2022-10-31T13:22:08;19.80;75.20
23053;DHT22;11694;-36.632;-64.318;2022-10-31T13:27:24;20.00;67.80
23053;DHT22;11694;-36.632;-64.318;2022-10-31T13:30:05;20.30;67.50
23053;DHT22;11694;-36.632;-64.318;2022-10-31T13:32:50;20.20;69.20
23053;DHT22;11694;-36.632;-64.318;2022-10-31T13:35:33;20.30;69.30
23053;DHT22;11694;-36.632;-64.318;2022-10-31T13:38:31;20.10;66.10
23053;DHT22;11694;-36.632;-64.318;2022-10-31T13:49:00;20.40;57.80
23053;DHT22;11694;-36.632;-64.318;2022-10-31T13:51:30;20.70;61.00
23053;DHT22;11694;-36.632;-64.318;2022-10-31T13:54:19;21.00;57.40
23053;DHT22;11694;-36.632;-64.318;2022-10-31T13:56:51;21.20;61.60
23053;DHT22;11694;-36.632;-64.318;2022-10-31T13:59:27;21.10;57.70
23053;DHT22;11694;-36.632;-64.318;2022-10-31T14:02:00;21.00;57.40
23053;DHT22;11694;-36.632;-64.318;2022-10-31T14:04:44;21.00;57.10
23053;DHT22;11694;-36.632;-64.318;2022-10-31T14:07:17;21.20;58.70
23053;DHT22;11694;-36.632;-64.318;2022-10-31T14:12:41;21.40;57.40
23053;DHT22;11694;-36.632;-64.318;2022-10-31T14:15:22;21.20;57.00
23053;DHT22;11694;-36.632;-64.318;2022-10-31T14:18:04;21.50;58.20
23053;DHT22;11694;-36.632;-64.318;2022-10-31T14:20:40;21.50;53.90
23053;DHT22;11694;-36.632;-64.318;2022-10-31T14:26:19;22.70;56.70
23053;DHT22;11694;-36.632;-64.318;2022-10-31T14:28:47;22.90;52.60
23053;DHT22;11694;-36.632;-64.318;2022-10-31T14:37:21;22.30;54.40
23053;DHT22;11694;-36.632;-64.318;2022-10-31T14:40:20;22.70;53.50
23053;DHT22;11694;-36.632;-64.318;2022-10-31T14:49:03;22.30;50.30
23053;DHT22;11694;-36.632;-64.318;2022-10-31T14:51:46;22.20;49.90
23053;DHT22;11694;-36.632;-64.318;2022-10-31T14:54:36;22.30;51.40
23053;DHT22;11694;-36.632;-64.318;2022-10-31T14:57:13;22.90;52.80
23053;DHT22;11694;-36.632;-64.318;2022-10-31T14:59:46;22.60;50.00
23053;DHT22;11694;-36.632;-64.318;2022-10-31T15:05:10;22.70;50.60
23053;DHT22;11694;-36.632;-64.318;2022-10-31T15:07:53;22.50;50.00
23053;DHT22;11694;-36.632;-64.318;2022-10-31T15:10:30;22.00;49.40
23053;DHT22;11694;-36.632;-64.318;2022-10-31T15:13:18;22.10;48.80
23053;DHT22;11694;-36.632;-64.318;2022-10-31T15:15:48;22.50;49.90
23053;DHT22;11694;-36.632;-64.318;2022-10-31T15:18:21;23.20;52.50
23053;DHT22;11694;-36.632;-64.318;2022-10-31T15:20:51;23.00;50.50
23053;DHT22;11694;-36.632;-64.318;2022-10-31T15:23:27;22.70;50.40
23053;DHT22;11694;-36.632;-64.318;2022-10-31T15:26:05;22.40;48.10
23053;DHT22;11694;-36.632;-64.318;2022-10-31T15:28:32;22.10;49.60
23053;DHT22;11694;-36.632;-64.318;2022-10-31T15:31:01;22.00;48.40
23053;DHT22;11694;-36.632;-64.318;2022-10-31T15:33:32;22.20;50.50
23053;DHT22;11694;-36.632;-64.318;2022-10-31T15:36:17;22.40;49.00
23053;DHT22;11694;-36.632;-64.318;2022-10-31T15:38:45;22.40;50.20
23053;DHT22;11694;-36.632;-64.318;2022-10-31T15:44:18;22.70;52.50
23053;DHT22;11694;-36.632;-64.318;2022-10-31T15:47:00;22.50;49.10
23053;DHT22;11694;-36.632;-64.318;2022-10-31T15:49:38;22.60;52.90
23053;DHT22;11694;-36.632;-64.318;2022-10-31T15:52:12;23.30;51.60
23053;DHT22;11694;-36.632;-64.318;2022-10-31T15:54:50;23.20;48.70
23053;DHT22;11694;-36.632;-64.318;2022-10-31T15:57:17;23.20;52.30
23053;DHT22;11694;-36.632;-64.318;2022-10-31T15:59:48;22.90;49.60
23053;DHT22;11694;-36.632;-64.318;2022-10-31T16:02:22;22.80;50.90
23053;DHT22;11694;-36.632;-64.318;2022-10-31T16:05:19;22.80;48.40
23053;DHT22;11694;-36.632;-64.318;2022-10-31T16:07:51;22.80;52.60
23053;DHT22;11694;-36.632;-64.318;2022-10-31T16:10:26;22.80;50.00
23053;DHT22;11694;-36.632;-64.318;2022-10-31T16:12:54;22.90;51.30
23053;DHT22;11694;-36.632;-64.318;2022-10-31T16:15:22;23.00;51.70
23053;DHT22;11694;-36.632;-64.318;2022-10-31T16:17:51;22.90;49.90
23053;DHT22;11694;-36.632;-64.318;2022-10-31T16:20:25;23.00;55.20
23053;DHT22;11694;-36.632;-64.318;2022-10-31T16:22:55;23.10;51.30
23053;DHT22;11694;-36.632;-64.318;2022-10-31T16:25:28;22.90;49.70
23053;DHT22;11694;-36.632;-64.318;2022-10-31T16:28:04;22.60;49.30
23053;DHT22;11694;-36.632;-64.318;2022-10-31T16:35:52;22.80;49.00
23053;DHT22;11694;-36.632;-64.318;2022-10-31T16:38:20;22.60;49.10
23053;DHT22;11694;-36.632;-64.318;2022-10-31T16:40:48;22.80;53.80
23053;DHT22;11694;-36.632;-64.318;2022-10-31T16:43:17;23.10;56.10
23053;DHT22;11694;-36.632;-64.318;2022-10-31T16:45:51;23.30;52.70
23053;DHT22;11694;-36.632;-64.318;2022-10-31T16:48:44;23.30;48.60
23053;DHT22;11694;-36.632;-64.318;2022-10-31T16:51:11;23.30;51.30
23053;DHT22;11694;-36.632;-64.318;2022-10-31T16:53:38;23.60;53.00
23053;DHT22;11694;-36.632;-64.318;2022-10-31T16:56:25;23.60;50.60
23053;DHT22;11694;-36.632;-64.318;2022-10-31T16:58:53;23.40;47.50
23053;DHT22;11694;-36.632;-64.318;2022-10-31T17:01:20;23.30;49.30
23053;DHT22;11694;-36.632;-64.318;2022-10-31T17:03:47;23.30;48.80
23053;DHT22;11694;-36.632;-64.318;2022-10-31T17:06:15;23.30;50.30
23053;DHT22;11694;-36.632;-64.318;2022-10-31T17:08:42;23.10;46.70
23053;DHT22;11694;-36.632;-64.318;2022-10-31T17:11:19;23.10;46.60
23053;DHT22;11694;-36.632;-64.318;2022-10-31T17:13:47;23.30;48.60
23053;DHT22;11694;-36.632;-64.318;2022-10-31T17:16:14;23.50;48.10
23053;DHT22;11694;-36.632;-64.318;2022-10-31T17:18:41;23.50;48.10
23053;DHT22;11694;-36.632;-64.318;2022-10-31T17:21:21;23.40;47.70
23053;DHT22;11694;-36.632;-64.318;2022-10-31T17:23:53;23.20;48.90
23053;DHT22;11694;-36.632;-64.318;2022-10-31T17:26:20;23.10;49.10
23053;DHT22;11694;-36.632;-64.318;2022-10-31T17:28:49;23.40;52.50
23053;DHT22;11694;-36.632;-64.318;2022-10-31T17:31:22;23.80;50.10
23053;DHT22;11694;-36.632;-64.318;2022-10-31T17:33:50;23.60;47.80
23053;DHT22;11694;-36.632;-64.318;2022-10-31T17:36:18;23.40;48.40
23053;DHT22;11694;-36.632;-64.318;2022-10-31T17:38:45;23.80;51.10
23053;DHT22;11694;-36.632;-64.318;2022-10-31T17:41:12;23.60;46.40
23053;DHT22;11694;-36.632;-64.318;2022-10-31T17:43:39;23.50;49.80
23053;DHT22;11694;-36.632;-64.318;2022-10-31T17:46:07;23.70;49.10
23053;DHT22;11694;-36.632;-64.318;2022-10-31T17:48:36;23.90;51.70
23053;DHT22;11694;-36.632;-64.318;2022-10-31T17:51:04;23.90;48.80
23053;DHT22;11694;-36.632;-64.318;2022-10-31T17:53:33;24.00;47.40
23053;DHT22;11694;-36.632;-64.318;2022-10-31T17:56:08;23.90;46.80
23053;DHT22;11694;-36.632;-64.318;2022-10-31T17:58:36;23.80;44.30
23053;DHT22;11694;-36.632;-64.318;2022-10-31T18:03:43;23.60;44.30
23053;DHT22;11694;-36.632;-64.318;2022-10-31T18:06:12;23.60;47.20
23053;DHT22;11694;-36.632;-64.318;2022-10-31T18:08:43;24.00;50.80
23053;DHT22;11694;-36.632;-64.318;2022-10-31T18:11:16;24.20;46.90